Martindale, Pennsylvania
Current Conditions -  °F | °C
As of 7:53 AM on Thursday 23 Oct 2014 (Local Time) from KLNS Reporting Station
Overcast Overcast  
Wind Chill: 52°   Ceiling: 2900
Heat Index: 52°   Visibility: 10mi
Dew Point: 42°   Wind: 14mph
Humidity: 69%   Direction: 330°NNW
Pressure: 29.84"   Gusts: 25mph
Location:  40.15°N, 76.08°W
Report Text: KLNS 231153Z 33012G22KT 10SM BKN029 OVC050 11/06 A2984 RMK AO2 RAB12E24 SLP104 P0000 60000 70006 T01110056 10111 20106 58003
Loading
Personal Weather Stations






























Interactive Weather Map
Tropical Storm Tracking
New forecast layout! Learn more

10-Day Weather Forecast

Advertisements
Track Severe Weather on mobile